Главная страница
METAR-TAF:

METAR-TAF

Аэропорты :

Саннефьорд, Норвегия

широта: 59-12N, долгота: 010-16E, высота над уровнем моря: 8 м

Текущие метеонаблюдения

Эта сводка был подготовлена 33 минут назад, в 15:20 UTC
Ветер 6 Узел от северный
Температура 12°C
Влажность 100%
Давление 1009 hPa
Видимость: 6000 м
Морось,

METAR: ENTO 221520Z 36006KT 6000 DZ VV020 12/12 Q1009 RESHRA NOSIG

Время: 17:53 (15:53 UTC)

Прогноз

Эта сводка был подготовлена 2 часа и 37 минут назад, в 13:16 UTC
Прогноз действительный с 22-го 13 UTC до 23-го 12 UTC
Ветер 8 Узел от северо-северо-восточный
Видимость 10 км и более
Отдельные облака на высоте 800 фута
Рассеянная облачность на высоте 4000 фута
небольшой дождь
временами
С 22-го 13 UTC до 22-го 18 UTC
Рассеянная облачность на высоте 800 фута
дождь
изменения
С 23-го 09 UTC до 23-го 11 UTC
Ветер 10 Узел от южный-юго-западный

TAF: ENTO 221316Z 2213/2312 02008KT 9999 -RA SCT008 BKN040 TEMPO 2213/2218 RA BKN008 BECMG 2309/2311 20010KT

Метеонаблюдения и прогнозы для более 4000 аэропортов (сводки METAR и TAF).

Имеющиеся станции представлены на карте желтыми и красными точками.

Чтобы увидеть название станции, наведите на нее мышь.

Затем щелкните, чтобы увидеть метеонаблюдения и метеопрогнозы.

Управление картой: чтобы увеличить масштаб, щелкните зеленые кнопки с черным крестиком; чтобы уменьшить масштаб, щелкните зеленую кнопку с тире; для просмотра соседних карт щелкайте зеленые стрелки.


METAR-TAF: